createdAt,value
2023-02-17T00:02:06.070Z,97957.60
2023-02-17T00:04:34.637Z,97957.87
2023-02-17T00:07:02.728Z,97957.61
2023-02-17T00:09:30.749Z,97952.88
2023-02-17T00:11:58.743Z,97955.48
2023-02-17T00:14:26.784Z,97956.88
2023-02-17T00:16:54.771Z,97953.16
2023-02-17T00:19:26.114Z,97949.61
2023-02-17T00:21:56.907Z,97946.75
2023-02-17T00:24:27.845Z,97943.55
2023-02-17T00:26:56.021Z,97935.39
2023-02-17T00:29:24.222Z,97931.34
2023-02-17T00:31:53.901Z,97933.39
2023-02-17T00:34:24.435Z,97934.60
2023-02-17T00:36:53.470Z,97926.92
2023-02-17T00:39:21.670Z,97924.91
2023-02-17T00:41:50.365Z,97919.98
2023-02-17T00:44:24.022Z,97919.52
2023-02-17T00:46:53.470Z,97916.64
2023-02-17T00:49:26.661Z,97914.66
2023-02-17T00:51:54.816Z,97916.54
2023-02-17T00:54:22.953Z,97916.92
2023-02-17T00:56:50.997Z,97916.92
2023-02-17T00:59:19.124Z,97911.67
2023-02-17T01:01:47.482Z,97907.46
2023-02-17T01:04:15.631Z,97898.48
2023-02-17T01:06:43.697Z,97896.64
2023-02-17T01:09:14.534Z,97898.40
2023-02-17T01:11:43.802Z,97895.52
2023-02-17T01:14:13.594Z,97886.21
2023-02-17T01:16:46.304Z,97880.81
2023-02-17T01:19:17.713Z,97875.39
2023-02-17T01:21:49.034Z,97877.14
2023-02-17T01:24:17.485Z,97873.09
2023-02-17T01:26:45.701Z,97863.21
2023-02-17T01:29:13.823Z,97861.00
2023-02-17T01:31:42.031Z,97863.58
2023-02-17T01:34:13.238Z,97856.81
2023-02-17T01:36:41.376Z,97862.15
2023-02-17T01:39:17.032Z,97862.35
2023-02-17T01:41:48.287Z,97865.64
2023-02-17T01:44:17.917Z,97864.48
2023-02-17T01:46:48.956Z,97861.26
2023-02-17T01:49:24.628Z,97857.17
2023-02-17T01:52:08.179Z,97853.09
2023-02-17T01:54:45.873Z,97856.36
2023-02-17T01:57:18.444Z,97860.71
2023-02-17T01:59:48.226Z,97863.30
2023-02-17T02:02:16.877Z,97863.89
2023-02-17T02:04:47.011Z,97860.59
2023-02-17T02:07:20.274Z,97862.68
2023-02-17T02:09:54.396Z,97868.15
2023-02-17T02:12:24.863Z,97867.15
2023-02-17T02:14:57.922Z,97865.79
2023-02-17T02:17:44.249Z,97858.46
2023-02-17T02:20:33.558Z,97858.46
2023-02-17T02:23:32.842Z,97863.08
2023-02-17T02:26:18.956Z,97867.94
2023-02-17T02:28:49.745Z,97870.02
2023-02-17T02:31:59.214Z,97864.77
2023-02-17T02:34:43.634Z,97861.09
2023-02-17T02:37:11.668Z,97857.92
2023-02-17T02:39:44.788Z,97853.70
2023-02-17T02:42:19.065Z,97854.04
2023-02-17T02:44:47.923Z,97852.84
2023-02-17T02:47:40.254Z,97846.72
2023-02-17T02:50:11.360Z,97840.14
2023-02-17T02:52:59.247Z,97840.34
2023-02-17T02:55:39.291Z,97838.00
2023-02-17T02:58:18.671Z,97838.21
2023-02-17T03:01:03.101Z,97840.62
2023-02-17T03:04:00.443Z,97839.09
2023-02-17T03:06:37.605Z,97844.38
2023-02-17T03:09:11.747Z,97845.88
2023-02-17T03:11:41.782Z,97843.30
2023-02-17T03:14:13.517Z,97843.64
2023-02-17T03:16:43.513Z,97850.59
2023-02-17T03:19:13.935Z,97847.52
2023-02-17T03:21:56.217Z,97847.17
2023-02-17T03:24:24.582Z,97850.92
2023-02-17T03:26:52.690Z,97848.34
2023-02-17T03:29:20.828Z,97851.61
2023-02-17T03:31:48.926Z,97849.23
2023-02-17T03:34:17.266Z,97841.77
2023-02-17T03:36:45.379Z,97848.91
2023-02-17T03:39:13.491Z,97845.83
2023-02-17T03:41:41.603Z,97850.30
2023-02-17T03:44:09.686Z,97851.52
2023-02-17T03:46:41.066Z,97849.69
2023-02-17T03:49:09.284Z,97853.62
2023-02-17T03:51:37.480Z,97855.70
2023-02-17T03:54:06.340Z,97854.67
2023-02-17T03:56:34.519Z,97851.46
2023-02-17T03:59:04.162Z,97855.52
2023-02-17T04:01:32.614Z,97854.54
2023-02-17T04:04:00.877Z,97852.17
2023-02-17T04:06:29.077Z,97852.36
2023-02-17T04:08:57.216Z,97852.04
2023-02-17T04:11:25.376Z,97854.61
2023-02-17T04:13:53.449Z,97853.95
2023-02-17T04:16:21.635Z,97851.41
2023-02-17T04:18:49.838Z,97855.52
2023-02-17T04:21:18.039Z,97853.98
2023-02-17T04:23:46.247Z,97848.38
2023-02-17T04:26:14.301Z,97851.80
2023-02-17T04:28:43.039Z,97847.02
2023-02-17T04:31:11.402Z,97851.13
2023-02-17T04:33:39.585Z,97852.05
2023-02-17T04:36:08.252Z,97852.09
2023-02-17T04:38:36.408Z,97850.23
2023-02-17T04:41:06.398Z,97849.73
2023-02-17T04:43:34.453Z,97843.46
2023-02-17T04:46:03.037Z,97845.48
2023-02-17T04:48:31.235Z,97845.98
2023-02-17T04:50:59.331Z,97845.50
2023-02-17T04:53:27.476Z,97845.02
2023-02-17T04:55:55.820Z,97839.71
2023-02-17T04:58:24.117Z,97840.92
2023-02-17T05:00:52.173Z,97840.61
2023-02-17T05:03:20.222Z,97842.65
2023-02-17T05:05:49.819Z,97840.79
2023-02-17T05:08:18.064Z,97836.35
2023-02-17T05:10:46.218Z,97841.98
2023-02-17T05:13:14.208Z,97843.84
2023-02-17T05:15:44.258Z,97843.52
2023-02-17T05:18:13.369Z,97847.77
2023-02-17T05:20:42.349Z,97855.42
2023-02-17T05:23:10.663Z,97863.27
2023-02-17T05:25:41.012Z,97862.79
2023-02-17T05:28:09.351Z,97860.77
2023-02-17T05:30:37.484Z,97859.91
2023-02-17T05:33:05.667Z,97859.42
2023-02-17T05:35:35.385Z,97864.39
2023-02-17T05:38:03.579Z,97872.23
2023-02-17T05:40:31.942Z,97872.61
2023-02-17T05:42:59.926Z,97874.73
2023-02-17T05:45:28.081Z,97875.95
2023-02-17T05:47:56.249Z,97874.60
2023-02-17T05:50:24.786Z,97878.87
2023-02-17T05:52:52.964Z,97880.41
2023-02-17T05:55:22.338Z,97877.70
2023-02-17T05:57:50.510Z,97875.84
2023-02-17T06:00:18.771Z,97874.02
2023-02-17T06:02:47.114Z,97876.95
2023-02-17T06:05:15.709Z,97876.42
2023-02-17T06:07:43.822Z,97880.05
2023-02-17T06:10:12.532Z,97873.98
2023-02-17T06:12:40.903Z,97871.30
2023-02-17T06:15:09.295Z,97873.02
2023-02-17T06:17:37.684Z,97873.02
2023-02-17T06:20:07.112Z,97878.19
2023-02-17T06:22:35.227Z,97880.94
2023-02-17T06:25:03.494Z,97879.62
2023-02-17T06:27:31.689Z,97878.13
2023-02-17T06:29:59.899Z,97879.52
2023-02-17T06:32:28.132Z,97882.93
2023-02-17T06:34:56.171Z,97882.59
2023-02-17T06:37:24.207Z,97878.71
2023-02-17T06:39:52.277Z,97871.91
2023-02-17T06:42:20.368Z,97869.55
2023-02-17T06:44:48.578Z,97873.05
2023-02-17T06:47:16.757Z,97874.64
2023-02-17T06:49:45.284Z,97876.05
2023-02-17T06:52:13.358Z,97873.85
2023-02-17T06:54:41.325Z,97880.39
2023-02-17T06:57:09.316Z,97881.99
2023-02-17T06:59:37.367Z,97881.20
2023-02-17T07:02:06.036Z,97880.09
2023-02-17T07:04:34.080Z,97877.97
2023-02-17T07:07:02.154Z,97874.50
2023-02-17T07:09:30.732Z,97873.11
2023-02-17T07:11:59.016Z,97871.75
2023-02-17T07:14:28.314Z,97870.90
2023-02-17T07:16:56.585Z,97866.42
2023-02-17T07:19:24.767Z,97866.71
2023-02-17T07:21:53.387Z,97870.79
2023-02-17T07:24:21.727Z,97873.84
2023-02-17T07:26:49.812Z,97875.02
2023-02-17T07:29:17.866Z,97877.17
2023-02-17T07:31:46.108Z,97874.08
2023-02-17T07:34:14.237Z,97874.05
2023-02-17T07:36:42.269Z,97872.33
2023-02-17T07:39:10.481Z,97872.09
2023-02-17T07:41:38.634Z,97875.30
2023-02-17T07:44:10.175Z,97872.18
2023-02-17T07:46:39.863Z,97877.58
2023-02-17T07:49:08.050Z,97875.52
2023-02-17T07:51:36.203Z,97875.16
2023-02-17T07:54:04.416Z,97874.83
2023-02-17T07:56:33.822Z,97879.88
2023-02-17T07:59:01.931Z,97873.55
2023-02-17T08:01:30.153Z,97877.77
2023-02-17T08:03:58.297Z,97877.73
2023-02-17T08:06:26.791Z,97875.97
2023-02-17T08:09:13.949Z,97874.91
2023-02-17T08:12:01.580Z,97872.83
2023-02-17T08:14:31.422Z,97874.52
2023-02-17T08:16:59.861Z,97874.30
2023-02-17T08:19:39.543Z,97879.90
2023-02-17T08:22:10.997Z,97882.27
2023-02-17T08:24:39.062Z,97874.37
2023-02-17T08:27:07.203Z,97877.39
2023-02-17T08:29:35.281Z,97880.08
2023-02-17T08:32:04.056Z,97882.20
2023-02-17T08:34:34.762Z,97882.64
2023-02-17T08:37:04.867Z,97877.80
2023-02-17T08:39:34.804Z,97877.21
2023-02-17T08:42:04.316Z,97878.71
2023-02-17T08:44:35.797Z,97879.85
2023-02-17T08:47:05.441Z,97880.63
2023-02-17T08:49:33.600Z,97882.25
2023-02-17T08:52:02.530Z,97879.63
2023-02-17T08:54:30.965Z,97879.51
2023-02-17T08:56:59.229Z,97878.05
2023-02-17T08:59:27.437Z,97876.08
2023-02-17T09:01:55.825Z,97867.11
2023-02-17T09:04:24.142Z,97862.08
2023-02-17T09:06:56.599Z,97859.77
2023-02-17T09:09:29.323Z,97856.25
2023-02-17T09:11:59.062Z,97850.17
2023-02-17T09:14:27.317Z,97847.84
2023-02-17T09:16:56.528Z,97845.84
2023-02-17T09:19:25.593Z,97845.38
2023-02-17T09:21:54.141Z,97842.69
2023-02-17T09:24:22.402Z,97843.77
2023-02-17T09:26:50.450Z,97844.15
2023-02-17T09:29:18.442Z,97845.02
2023-02-17T09:31:46.678Z,97842.98
2023-02-17T09:34:14.796Z,97846.58
2023-02-17T09:36:43.306Z,97846.63
2023-02-17T09:39:13.841Z,97844.77
2023-02-17T09:41:45.366Z,97845.42
2023-02-17T09:44:42.399Z,97846.81
2023-02-17T09:47:24.963Z,97842.86
2023-02-17T09:50:18.664Z,97842.36
2023-02-17T09:53:02.374Z,97840.28
2023-02-17T09:55:36.792Z,97841.65
2023-02-17T09:58:20.818Z,97844.73
2023-02-17T10:00:56.170Z,97844.23
2023-02-17T10:03:36.126Z,97841.83
2023-02-17T10:06:23.461Z,97844.52
2023-02-17T10:09:01.104Z,97839.55
2023-02-17T10:11:46.512Z,97839.69
2023-02-17T10:14:33.020Z,97841.22
2023-02-17T10:17:11.022Z,97839.48
2023-02-17T10:19:56.699Z,97839.80
2023-02-17T10:22:27.157Z,97835.30
2023-02-17T10:24:55.447Z,97831.02
2023-02-17T10:27:32.711Z,97830.30
2023-02-17T10:30:19.465Z,97825.14
2023-02-17T10:33:20.567Z,97820.27
2023-02-17T10:35:56.423Z,97813.02
2023-02-17T10:38:51.014Z,97809.03
2023-02-17T10:41:32.914Z,97807.98
2023-02-17T10:44:05.284Z,97806.41
2023-02-17T10:46:34.994Z,97805.38
2023-02-17T10:49:05.116Z,97800.36
2023-02-17T10:51:34.352Z,97798.96
2023-02-17T10:54:07.852Z,97799.80
2023-02-17T10:56:41.744Z,97793.28
2023-02-17T10:59:39.191Z,97788.98
2023-02-17T11:02:20.817Z,97786.84
2023-02-17T11:04:52.149Z,97780.81
2023-02-17T11:07:34.021Z,97779.27
2023-02-17T11:10:19.530Z,97777.03
2023-02-17T11:12:49.784Z,97777.34
2023-02-17T11:15:22.023Z,97775.47
2023-02-17T11:17:50.805Z,97770.70
2023-02-17T11:20:22.029Z,97769.98
2023-02-17T11:23:07.478Z,97767.93
2023-02-17T11:25:37.915Z,97763.84
2023-02-17T11:28:12.481Z,97761.80
2023-02-17T11:30:50.399Z,97762.49
2023-02-17T11:33:30.009Z,97755.48
2023-02-17T11:35:58.497Z,97757.75
2023-02-17T11:38:29.664Z,97754.98
2023-02-17T11:41:04.529Z,97751.77
2023-02-17T11:43:33.186Z,97753.16
2023-02-17T11:46:25.203Z,97749.58
2023-02-17T11:49:27.388Z,97742.06
2023-02-17T11:52:19.501Z,97740.55
2023-02-17T11:54:53.510Z,97740.75
2023-02-17T11:57:55.634Z,97738.25
2023-02-17T12:00:42.289Z,97733.66
2023-02-17T12:03:19.355Z,97728.80
2023-02-17T12:06:09.314Z,97728.15
2023-02-17T12:09:07.862Z,97729.76
2023-02-17T12:12:15.019Z,97726.90
2023-02-17T12:14:55.826Z,97726.95
2023-02-17T12:17:44.343Z,97725.47
2023-02-17T12:20:38.656Z,97717.00
2023-02-17T12:23:15.537Z,97718.64
2023-02-17T12:26:05.364Z,97716.33
2023-02-17T12:28:55.570Z,97715.93
2023-02-17T12:31:35.551Z,97708.69
2023-02-17T12:34:22.103Z,97701.94
2023-02-17T12:36:51.360Z,97708.38
2023-02-17T12:39:54.311Z,97705.77
2023-02-17T12:42:32.188Z,97709.50
2023-02-17T12:45:06.001Z,97710.35
2023-02-17T12:48:03.917Z,97709.96
2023-02-17T12:51:07.871Z,97710.47
2023-02-17T12:53:57.499Z,97706.48
2023-02-17T12:56:25.521Z,97706.29
2023-02-17T12:58:56.574Z,97701.42
2023-02-17T13:01:29.620Z,97700.05
2023-02-17T13:04:00.026Z,97699.87
2023-02-17T13:06:32.662Z,97698.30
2023-02-17T13:09:33.023Z,97692.98
2023-02-17T13:12:31.710Z,97694.34
2023-02-17T13:15:03.782Z,97699.29
2023-02-17T13:17:40.733Z,97703.95
2023-02-17T13:20:12.202Z,97695.85
2023-02-17T13:22:42.444Z,97694.80
2023-02-17T13:25:13.721Z,97695.65
2023-02-17T13:27:41.757Z,97697.89
2023-02-17T13:30:22.176Z,97696.48
2023-02-17T13:33:26.505Z,97701.59
2023-02-17T13:35:54.671Z,97701.59
2023-02-17T13:38:31.462Z,97699.34
2023-02-17T13:41:01.974Z,97699.83
2023-02-17T13:43:31.667Z,97700.88
2023-02-17T13:46:03.726Z,97703.79
2023-02-17T13:48:34.994Z,97697.80
2023-02-17T13:51:09.865Z,97697.96
2023-02-17T13:53:40.317Z,97698.83
2023-02-17T13:56:12.554Z,97696.77
2023-02-17T13:58:42.189Z,97698.52
2023-02-17T14:01:16.926Z,97699.36
2023-02-17T14:03:55.167Z,97698.30
2023-02-17T14:06:36.575Z,97688.34
2023-02-17T14:09:25.350Z,97686.42
2023-02-17T14:11:55.356Z,97686.96
2023-02-17T14:14:28.528Z,97690.05
2023-02-17T14:17:01.337Z,97684.71
2023-02-17T14:19:40.936Z,97685.41
2023-02-17T14:22:24.863Z,97685.20
2023-02-17T14:25:06.384Z,97685.91
2023-02-17T14:28:04.071Z,97685.39
2023-02-17T14:30:39.818Z,97684.55
2023-02-17T14:33:28.257Z,97682.50
2023-02-17T14:35:59.415Z,97679.95
2023-02-17T14:38:37.732Z,97682.70
2023-02-17T14:41:07.640Z,97679.81
2023-02-17T14:43:36.441Z,97683.25
2023-02-17T14:46:05.093Z,97685.28
2023-02-17T14:48:33.203Z,97684.30
2023-02-17T14:51:01.172Z,97683.30
2023-02-17T14:53:36.602Z,97684.48
2023-02-17T14:56:36.740Z,97675.42
2023-02-17T14:59:05.184Z,97669.41
2023-02-17T15:01:33.207Z,97666.18
2023-02-17T15:04:02.875Z,97664.62
2023-02-17T15:06:41.385Z,97664.29
2023-02-17T15:09:13.164Z,97663.80
2023-02-17T15:11:45.606Z,97656.11
2023-02-17T15:14:16.257Z,97659.20
2023-02-17T15:16:45.606Z,97661.09
2023-02-17T15:19:18.012Z,97662.30
2023-02-17T15:21:56.440Z,97662.02
2023-02-17T15:24:30.475Z,97662.85
2023-02-17T15:27:00.125Z,97661.16
2023-02-17T15:29:28.552Z,97661.67
2023-02-17T15:31:59.637Z,97655.21
2023-02-17T15:34:33.029Z,97657.63
2023-02-17T15:37:02.586Z,97651.83
2023-02-17T15:39:30.683Z,97656.26
2023-02-17T15:42:04.650Z,97649.77
2023-02-17T15:44:43.208Z,97647.73
2023-02-17T15:47:16.038Z,97653.20
2023-02-17T15:49:44.054Z,97659.75
2023-02-17T15:52:13.582Z,97664.95
2023-02-17T15:54:42.802Z,97667.59
2023-02-17T15:57:24.663Z,97660.57
2023-02-17T15:59:55.195Z,97665.41
2023-02-17T16:02:25.789Z,97666.97
2023-02-17T16:04:53.837Z,97668.20
2023-02-17T16:07:21.969Z,97671.13
2023-02-17T16:09:50.014Z,97677.45
2023-02-17T16:12:26.856Z,97673.38
2023-02-17T16:14:56.903Z,97673.13
2023-02-17T16:17:26.093Z,97675.75
2023-02-17T16:19:54.097Z,97682.09
2023-02-17T16:22:22.246Z,97680.21
2023-02-17T16:24:50.401Z,97672.06
2023-02-17T16:27:18.639Z,97669.58
2023-02-17T16:29:46.762Z,97671.17
2023-02-17T16:32:14.833Z,97671.92
2023-02-17T16:34:43.103Z,97675.02
2023-02-17T16:37:17.461Z,97676.54
2023-02-17T16:39:46.150Z,97673.31
2023-02-17T16:42:15.557Z,97669.92
2023-02-17T16:44:44.418Z,97678.06
2023-02-17T16:47:20.736Z,97674.76
2023-02-17T16:49:50.394Z,97669.64
2023-02-17T16:52:25.791Z,97670.73
2023-02-17T16:54:54.215Z,97668.73
2023-02-17T16:57:22.676Z,97667.54
2023-02-17T16:59:50.909Z,97663.48
2023-02-17T17:02:21.322Z,97670.54
2023-02-17T17:04:49.951Z,97667.02
2023-02-17T17:07:18.274Z,97666.58
2023-02-17T17:10:06.980Z,97659.60
2023-02-17T17:12:35.195Z,97659.11
2023-02-17T17:15:04.351Z,97659.81
2023-02-17T17:17:39.011Z,97661.05
2023-02-17T17:20:07.971Z,97653.02
2023-02-17T17:22:36.064Z,97648.63
2023-02-17T17:25:04.282Z,97644.25
2023-02-17T17:27:32.417Z,97642.11
2023-02-17T17:30:00.589Z,97639.77
2023-02-17T17:32:28.811Z,97637.24
2023-02-17T17:34:56.967Z,97641.77
2023-02-17T17:37:25.137Z,97640.93
2023-02-17T17:39:53.162Z,97647.84
2023-02-17T17:42:21.140Z,97643.43
2023-02-17T17:44:49.256Z,97643.65
2023-02-17T17:47:29.381Z,97645.95
2023-02-17T17:49:58.475Z,97645.65
2023-02-17T17:52:26.573Z,97643.73
2023-02-17T17:54:54.619Z,97645.50
2023-02-17T17:57:22.742Z,97651.16
2023-02-17T17:59:50.671Z,97646.21
2023-02-17T18:02:21.658Z,97643.88
2023-02-17T18:04:49.799Z,97640.35
2023-02-17T18:07:26.963Z,97636.50
2023-02-17T18:09:55.078Z,97643.10
2023-02-17T18:12:24.691Z,97644.55
2023-02-17T18:14:54.832Z,97648.52
2023-02-17T18:17:23.924Z,97650.79
2023-02-17T18:19:54.989Z,97650.47
2023-02-17T18:22:23.130Z,97653.23
2023-02-17T18:24:51.274Z,97653.76
2023-02-17T18:27:19.339Z,97659.84
2023-02-17T18:29:47.367Z,97654.54
2023-02-17T18:32:15.478Z,97647.52
2023-02-17T18:34:43.464Z,97648.40
2023-02-17T18:37:11.556Z,97649.11
2023-02-17T18:39:39.650Z,97643.34
2023-02-17T18:42:07.655Z,97644.92
2023-02-17T18:44:35.772Z,97642.06
2023-02-17T18:47:03.859Z,97640.20
2023-02-17T18:49:31.882Z,97626.69
2023-02-17T18:52:00.002Z,97620.19
2023-02-17T18:54:28.098Z,97617.31
2023-02-17T18:56:56.191Z,97607.44
2023-02-17T18:59:24.347Z,97607.47
2023-02-17T19:01:52.494Z,97603.04
2023-02-17T19:04:20.460Z,97598.46
2023-02-17T19:06:48.742Z,97596.61
2023-02-17T19:09:16.941Z,97592.23
2023-02-17T19:11:44.946Z,97587.77
2023-02-17T19:14:13.049Z,97585.39
2023-02-17T19:16:41.066Z,97575.98
2023-02-17T19:19:09.198Z,97573.75
2023-02-17T19:21:37.339Z,97569.16
2023-02-17T19:24:05.476Z,97564.97
2023-02-17T19:26:34.312Z,97558.44
2023-02-17T19:29:02.596Z,97554.65
2023-02-17T19:31:31.127Z,97554.67
2023-02-17T19:34:01.317Z,97553.20
2023-02-17T19:36:29.420Z,97545.20
2023-02-17T19:38:57.954Z,97545.23
2023-02-17T19:41:26.193Z,97538.05
2023-02-17T19:43:54.283Z,97534.10
2023-02-17T19:46:24.534Z,97528.27
2023-02-17T19:48:52.721Z,97529.80
2023-02-17T19:51:21.033Z,97520.87
2023-02-17T19:53:49.137Z,97517.95
2023-02-17T19:56:20.877Z,97517.10
2023-02-17T19:58:49.584Z,97511.27
2023-02-17T20:01:21.461Z,97509.40
2023-02-17T20:03:50.005Z,97490.20
2023-02-17T20:06:21.596Z,97492.92
2023-02-17T20:08:58.984Z,97496.55
2023-02-17T20:11:28.415Z,97489.69
2023-02-17T20:14:00.853Z,97492.10
2023-02-17T20:16:29.921Z,97482.36
2023-02-17T20:19:01.077Z,97489.45
2023-02-17T20:21:31.233Z,97484.65
2023-02-17T20:24:00.348Z,97483.48
2023-02-17T20:26:32.525Z,97479.55
2023-02-17T20:29:01.792Z,97478.52
2023-02-17T20:31:30.107Z,97480.24
2023-02-17T20:33:58.179Z,97475.10
2023-02-17T20:36:26.306Z,97469.48
2023-02-17T20:38:54.315Z,97465.41
2023-02-17T20:41:23.127Z,97459.10
2023-02-17T20:43:52.076Z,97457.91
2023-02-17T20:46:25.102Z,97456.05
2023-02-17T20:48:54.105Z,97441.13
2023-02-17T20:51:22.690Z,97438.08
2023-02-17T20:53:51.177Z,97435.70
2023-02-17T20:56:22.458Z,97436.22
2023-02-17T20:58:51.951Z,97438.76
2023-02-17T21:01:20.354Z,97438.41
2023-02-17T21:03:48.634Z,97433.30
2023-02-17T21:06:23.130Z,97424.27
2023-02-17T21:08:53.939Z,97415.73
2023-02-17T21:11:22.563Z,97407.38
2023-02-17T21:13:50.973Z,97405.66
2023-02-17T21:16:22.762Z,97411.86
2023-02-17T21:18:50.855Z,97400.17
2023-02-17T21:21:19.097Z,97411.13
2023-02-17T21:23:48.094Z,97404.43
2023-02-17T21:26:17.147Z,97401.50
2023-02-17T21:28:46.300Z,97394.30
2023-02-17T21:31:15.121Z,97393.81
2023-02-17T21:33:43.580Z,97377.37
2023-02-17T21:36:14.514Z,97379.25
2023-02-17T21:38:42.973Z,97378.81
2023-02-17T21:41:17.386Z,97368.05
2023-02-17T21:44:04.579Z,97359.70
2023-02-17T21:46:33.600Z,97355.06
2023-02-17T21:49:01.626Z,97341.05
2023-02-17T21:51:30.876Z,97352.36
2023-02-17T21:53:59.400Z,97346.54
2023-02-17T21:56:27.453Z,97345.49
2023-02-17T21:58:56.023Z,97347.02
2023-02-17T22:01:26.382Z,97340.19
2023-02-17T22:03:55.625Z,97334.55
2023-02-17T22:06:37.170Z,97330.95
2023-02-17T22:09:07.472Z,97328.33
2023-02-17T22:11:39.603Z,97323.37
2023-02-17T22:14:12.358Z,97321.70
2023-02-17T22:16:40.631Z,97313.52
2023-02-17T22:19:16.165Z,97316.95
2023-02-17T22:21:44.577Z,97319.39
2023-02-17T22:24:13.337Z,97314.62
2023-02-17T22:26:42.189Z,97321.30
2023-02-17T22:29:10.278Z,97321.99
2023-02-17T22:31:38.477Z,97322.67
2023-02-17T22:34:09.871Z,97322.88
2023-02-17T22:36:38.593Z,97317.92
2023-02-17T22:39:08.282Z,97311.61
2023-02-17T22:41:38.766Z,97313.36
2023-02-17T22:44:07.546Z,97319.34
2023-02-17T22:46:35.619Z,97311.13
2023-02-17T22:49:03.603Z,97317.30
2023-02-17T22:51:38.524Z,97308.04
2023-02-17T22:54:07.952Z,97305.61
2023-02-17T22:56:36.604Z,97302.02
2023-02-17T22:59:05.714Z,97305.80
2023-02-17T23:01:35.537Z,97300.68
2023-02-17T23:04:04.593Z,97287.82
2023-02-17T23:06:35.305Z,97271.73
2023-02-17T23:09:05.211Z,97265.05
2023-02-17T23:11:50.193Z,97270.21
2023-02-17T23:14:20.481Z,97268.27
2023-02-17T23:16:49.266Z,97258.68
2023-02-17T23:19:19.754Z,97252.52
2023-02-17T23:21:50.814Z,97238.48
2023-02-17T23:24:20.455Z,97219.10
2023-02-17T23:26:49.129Z,97223.05
2023-02-17T23:29:18.390Z,97227.31
2023-02-17T23:31:47.074Z,97223.55
2023-02-17T23:34:16.335Z,97232.47
2023-02-17T23:36:46.370Z,97235.55
2023-02-17T23:39:15.720Z,97237.60
2023-02-17T23:41:44.319Z,97241.19
2023-02-17T23:44:14.163Z,97227.98
2023-02-17T23:46:43.680Z,97233.66
2023-02-17T23:49:16.876Z,97228.23
2023-02-17T23:51:46.953Z,97231.30
2023-02-17T23:54:15.533Z,97234.90
2023-02-17T23:56:43.843Z,97230.27
2023-02-17T23:59:12.002Z,97228.74
